Buffalo, WY (82834)

4:39 AM MDT on August 30, 2015 (GMT -0600)
Buffalo | | Change Station
CLOSE
Current Station
Personal Weather Station
Location: Buffalo, WY
Elevation: 4708 ft
Nearby Weather Stations
Active Advisory: Fire Weather Warning

Elev 4708 ft 44.34 °N, 106.70 °W | Updated 11 seconds ago

Clear
Clear
75.7 °F
Feels Like 77 °F
N
2.0
Wind Variable Wind from West
Gusts 2.5 mph

Today
High -- | Low -- °F
--% Chance of Precip.
Yesterday
High -- | Low -- °F
Precip. -- in
6:27 AM 7:47 PM
Full, 99% visible
Pressure 29.66 in
Visibility 10.0 miles
Clouds Clear
Heat Index 77 °F
Dew Point 38 °F
Humidity 26%
Rainfall 0.00 in
Snow Depth Not available.
UV 0.0 out of 12
Pollen 9.60 out of 12
Air Quality Not available.
Flu Activity Not available.
METAR KBYG 300953Z AUTO 25010KT 10SM CLR 26/02 A2990 RMK AO2 SLP042 T02560017
Pressure 29.66 in
Visibility 10.0 miles
Clouds Clear
Heat Index 77 °F
Dew Point 38 °F
Humidity 26%
Rainfall 0.00 in
Snow Depth Not available.
UV 0.0 out of 12
Pollen 9.60 out of 12
Air Quality Not available.
Flu Activity Not available.
METAR KBYG 300953Z AUTO 25010KT 10SM CLR 26/02 A2990 RMK AO2 SLP042 T02560017

10-Day Weather Forecast

×

Almanac

Astronomy

Aug. 30, 2015 Rise Set
Actual Time
Civil Twilight
Nautical Twilight
Astronomical Twilight
Moon
Length of Visible Light
Length of Day
Tomorrow will be .
, % of the Moon is Illuminated

Today's Extremes

State Highs State Lows

Community

WunderPhotos

Upload Photos

1,850,923 photos uploaded!

WunderBlogs® & News

Nearby

Air Quality

  Air Quality AQ Index Pollutant
Not available.

Snow Depth

Station Depth Elevation

Earthquake Activity

City Distance Mag. Time & Date
Minimum magnitude displayed is 2.5.

Coastal Water Temperatures

Place Temperature

Stations

Nearby Weather Stations

Station Location Temp. Windchill Dew Point Humidity Wind Precip. Elev Updated Type
                   
Fire Weather Warning
Statement as of 3:10 AM MDT on August 30, 2015

... Red flag warning remains in effect until 9 PM MDT this evening
for gusty wind... low humidity... hot temperatures... and a Haines
index of 6...

* wind... southwest increasing to 15 to 25 mph with gusts around 35
mph by 1800 this afternoon.

* Maximum temperatures... 88 to 93.

* Humidity... relative humidity will return to the mid teens
around noon on Sunday.

* Haines index... 6

* thunderstorms... isolated to widely scattered dry thunderstorms
today.

* Impacts... any fires that develop will likely spread rapidly.
Outdoor burning is not recommended and campfires need to be
out cold.

Precautionary/preparedness actions...

A red flag warning means that critical fire weather conditions
are either occurring now... or will shortly. A combination of
strong winds... low relative humidity... and warm temperatures will
create extreme fire behavior.